Time;durP1;ratioP1;P1;durP2;ratioP2;P2;SDS_P1;SDS_P2;PMS_P1;PMS_P2;Temp;Humidity;BMP_temperature;BMP_pressure;BME280_temperature;BME280_humidity;BME280_pressure;Samples;Min_cycle;Max_cycle;Signal;HPM_P1;HPM_P2
2023/12/04 05:16:53;;;;;;;;;;;;;;;;;;4995056;28;19937;-69
2023/12/04 05:19:20;;;;;;;;;;;;;;;;;;4994947;28;19926;-68
2023/12/04 05:21:47;;;;;;;;;;;;;;;;;;4994822;28;19949;-68
2023/12/04 05:24:13;;;;;;;;;;;;;;;;;;4994863;28;19937;-69
2023/12/04 05:26:40;;;;;;;;;;;;;;;;;;4994498;28;19933;-68
2023/12/04 05:29:07;;;;;;;;;;;;;;;;;;4995113;28;19926;-68
2023/12/04 05:31:34;;;;;;;;;;;;;;;;;;4994906;28;20409;-69
2023/12/04 05:34:01;;;;;;;;;;;;;;;;;;4994926;28;19926;-70
2023/12/04 05:36:28;;;;;;;;;;;;;;;;;;4994895;28;19926;-70
2023/12/04 05:38:55;;;;;;;;;;;;;;;;;;4994973;28;19930;-68
2023/12/04 05:41:22;;;;;;;;;;;;;;;;;;4994581;28;19926;-71
2023/12/04 05:43:49;;;;;;;;;;;;;;;;;;4994867;28;19932;-70
2023/12/04 05:46:16;;;;;;;;;;;;;;;;;;4994475;28;19926;-68
2023/12/04 05:48:42;;;;;;;;;;;;;;;;;;4994531;28;19933;-68
2023/12/04 05:51:09;;;;;;;;;;;;;;;;;;4994760;28;19930;-69
2023/12/04 05:53:36;;;;;;;;;;;;;;;;;;4994109;28;20295;-69
2023/12/04 05:56:03;;;;;;;;;;;;;;;;;;4994590;28;19925;-69
2023/12/04 05:58:30;;;;;;;;;;;;;;;;;;4994597;28;19933;-69
2023/12/04 06:00:57;;;;;;;;;;;;;;;;;;4994504;28;19926;-69
2023/12/04 06:03:24;;;;;;;;;;;;;;;;;;4995000;28;19932;-68
2023/12/04 06:05:51;;;;;;;;;;;;;;;;;;4994378;28;19948;-67
2023/12/04 06:08:18;;;;;;;;;;;;;;;;;;4995529;28;20363;-69
2023/12/04 06:10:44;;;;;;;;;;;;;;;;;;4994320;28;20276;-70
2023/12/04 06:13:11;;;;;;;;;;;;;;;;;;4994454;28;19933;-69
2023/12/04 06:15:38;;;;;;;;;;;;;;;;;;4994693;28;19925;-68
2023/12/04 06:18:05;;;;;;;;;;;;;;;;;;5024896;23;19937;-73
2023/12/04 06:20:32;;;;;;;;;;;;;;;;;;5018283;28;19933;-73
2023/12/04 06:22:59;;;;;;;;;;;;;;;;;;5015661;28;19929;-73
2023/12/04 06:25:26;;;;;;;;;;;;;;;;;;5014963;28;20294;-72
2023/12/04 06:27:53;;;;;;;;;;;;;;;;;;5015555;28;19933;-72
2023/12/04 06:30:20;;;;;;;;;;;;;;;;;;5015283;28;19976;-72
2023/12/04 06:32:47;;;;;;;;;;;;;;;;;;5015836;28;20020;-72
2023/12/04 06:35:14;;;;;;;;;;;;;;;;;;5015589;28;20012;-72
2023/12/04 06:37:41;;;;;;;;;;;;;;;;;;5014472;28;19925;-73
2023/12/04 06:40:11;;;;;;;;;;;;;;;;;;5014192;28;19926;-73
2023/12/04 06:42:38;;;;;;;;;;;;;;;;;;5014038;28;19925;-73
2023/12/04 06:45:04;;;;;;;;;;;;;;;;;;5013455;28;20397;-73
2023/12/04 06:47:31;;;;;;;;;;;;;;;;;;5014068;28;19926;-73
2023/12/04 06:49:58;;;;;;;;;;;;;;;;;;5014010;28;19926;-72
2023/12/04 06:52:25;;;;;;;;;;;;;;;;;;5014922;28;19933;-72
2023/12/04 06:54:52;;;;;;;;;;;;;;;;;;5016238;28;19960;-72
2023/12/04 06:57:19;;;;;;;;;;;;;;;;;;5013873;28;19932;-73
2023/12/04 06:59:46;;;;;;;;;;;;;;;;;;5013921;28;19929;-73
2023/12/04 07:02:13;;;;;;;;;;;;;;;;;;5014148;28;20290;-73
2023/12/04 07:04:40;;;;;;;;;;;;;;;;;;5014688;28;19925;-73
2023/12/04 07:07:07;;;;;;;;;;;;;;;;;;5015589;28;19979;-73
2023/12/04 07:09:34;;;;;;;;;;;;;;;;;;5019133;28;20322;-73
2023/12/04 07:12:02;;;;;;;;;;;;;;;;;;5019734;28;19930;-73
2023/12/04 07:14:29;;;;;;;;;;;;;;;;;;5018710;28;19925;-73
2023/12/04 07:16:56;;;;;;;;;;;;;;;;;;5018116;28;20466;-73
2023/12/04 07:19:23;;;;;;;;;;;;;;;;;;5020003;28;19925;-73
2023/12/04 07:21:50;;;;;;;;;;;;;;;;;;5018503;28;20393;-73
2023/12/04 07:24:17;;;;;;;;;;;;;;;;;;5018038;28;20382;-73
2023/12/04 07:26:44;;;;;;;;;;;;;;;;;;5018063;28;20020;-73
2023/12/04 07:29:11;;;;;;;;;;;;;;;;;;5016672;28;19926;-72
2023/12/04 07:31:38;;;;;;;;;;;;;;;;;;5016890;28;19933;-72
2023/12/04 07:34:05;;;;;;;;;;;;;;;;;;5016787;28;19925;-72
2023/12/04 07:36:32;;;;;;;;;;;;;;;;;;5016494;28;19929;-72
2023/12/04 07:38:59;;;;;;;;;;;;;;;;;;5016585;28;19926;-72
2023/12/04 07:41:26;;;;;;;;;;;;;;;;;;5016497;28;19926;-72
2023/12/04 07:43:54;;;;;;;;;;;;;;;;;;5016560;28;19933;-72
2023/12/04 07:46:21;;;;;;;;;;;;;;;;;;5016528;28;19936;-72
2023/12/04 07:48:48;;;;;;;;;;;;;;;;;;5017115;28;19948;-73
2023/12/04 07:51:16;;;;;;;;;;;;;;;;;;5016621;28;19926;-73
2023/12/04 07:53:47;;;;;;;;;;;;;;;;;;5016176;28;20367;-76
2023/12/04 07:56:14;;;;;;;;;;;;;;;;;;5016256;28;19926;-72
2023/12/04 07:58:41;;;;;;;;;;;;;;;;;;5016213;28;19973;-72
2023/12/04 08:01:08;;;;;;;;;;;;;;;;;;5016125;28;19930;-72
2023/12/04 08:03:35;;;;;;;;;;;;;;;;;;5016256;28;19926;-72
2023/12/04 08:06:03;;;;;;;;;;;;;;;;;;5016066;28;19932;-72
2023/12/04 08:08:31;;;;;;;;;;;;;;;;;;5015695;28;20449;-72
2023/12/04 08:10:58;;;;;;;;;;;;;;;;;;5015961;28;19976;-72
2023/12/04 08:13:24;;;;;;;;;;;;;;;;;;5015690;28;20294;-72
2023/12/04 08:15:51;;;;;;;;;;;;;;;;;;5016281;28;19925;-73
2023/12/04 08:18:18;;;;;;;;;;;;;;;;;;5015570;28;20302;-73
2023/12/04 08:20:45;;;;;;;;;;;;;;;;;;5015892;28;19933;-73
2023/12/04 08:23:13;;;;;;;;;;;;;;;;;;5015889;28;19929;-73
2023/12/04 08:25:40;;;;;;;;;;;;;;;;;;5015335;28;20291;-73
2023/12/04 08:28:08;;;;;;;;;;;;;;;;;;5015928;28;19926;-73
2023/12/04 08:30:35;;;;;;;;;;;;;;;;;;5015487;28;20359;-73
2023/12/04 08:33:02;;;;;;;;;;;;;;;;;;5015554;28;19925;-73
2023/12/04 08:35:29;;;;;;;;;;;;;;;;;;5015507;28;19925;-73
2023/12/04 08:37:56;;;;;;;;;;;;;;;;;;5015821;28;19932;-73
2023/12/04 08:40:23;;;;;;;;;;;;;;;;;;5015586;28;19926;-73
2023/12/04 08:42:50;;;;;;;;;;;;;;;;;;5015553;28;19932;-73
2023/12/04 08:45:17;;;;;;;;;;;;;;;;;;5015552;28;19925;-73
2023/12/04 08:47:44;;;;;;;;;;;;;;;;;;5015573;28;19926;-73
2023/12/04 08:50:11;;;;;;;;;;;;;;;;;;5015582;28;19932;-73
2023/12/04 08:52:37;;;;;;;;;;;;;;;;;;5015505;28;20000;-73
2023/12/04 08:55:04;;;;;;;;;;;;;;;;;;5015409;28;20008;-73
2023/12/04 08:57:31;;;;;;;;;;;;;;;;;;5015468;28;19925;-73
2023/12/04 08:59:58;;;;;;;;;;;;;;;;;;5015205;28;19929;-73
2023/12/04 09:02:25;;;;;;;;;;;;;;;;;;5015115;28;19932;-73
2023/12/04 09:04:52;;;;;;;;;;;;;;;;;;5015242;28;19941;-73
2023/12/04 09:07:19;;;;;;;;;;;;;;;;;;5014604;28;20299;-73
2023/12/04 09:09:46;;;;;;;;;;;;;;;;;;5014895;28;19926;-73
2023/12/04 09:12:13;;;;;;;;;;;;;;;;;;5014575;28;20437;-73
2023/12/04 09:14:40;;;;;;;;;;;;;;;;;;5014928;28;19926;-73
2023/12/04 09:17:07;;;;;;;;;;;;;;;;;;5014825;28;19932;-73
2023/12/04 09:19:34;;;;;;;;;;;;;;;;;;5014268;28;19999;-73
2023/12/04 09:22:01;;;;;;;;;;;;;;;;;;5014667;28;19925;-73
2023/12/04 09:24:28;;;;;;;;;;;;;;;;;;5014330;28;20391;-73
2023/12/04 09:26:56;;;;;;;;;;;;;;;;;;5014262;28;19929;-73
2023/12/04 09:29:23;;;;;;;;;;;;;;;;;;5014317;28;19978;-73
2023/12/04 09:31:50;;;;;;;;;;;;;;;;;;5014241;28;20471;-73
2023/12/04 09:34:17;;;;;;;;;;;;;;;;;;5014516;28;19925;-73
2023/12/04 09:36:44;;;;;;;;;;;;;;;;;;5014680;28;19932;-73
2023/12/04 09:39:11;;;;;;;;;;;;;;;;;;5014422;28;19929;-73
2023/12/04 09:41:38;;;;;;;;;;;;;;;;;;5014444;28;19952;-72
2023/12/04 09:44:05;;;;;;;;;;;;;;;;;;5014504;28;19925;-73
2023/12/04 09:46:32;;;;;;;;;;;;;;;;;;5014435;28;19929;-73
2023/12/04 09:48:59;;;;;;;;;;;;;;;;;;5014313;28;20324;-73
2023/12/04 09:51:26;;;;;;;;;;;;;;;;;;5014465;28;19925;-73
2023/12/04 09:53:53;;;;;;;;;;;;;;;;;;5014433;28;19925;-73
2023/12/04 09:56:20;;;;;;;;;;;;;;;;;;5014818;28;19925;-74
2023/12/04 09:58:47;;;;;;;;;;;;;;;;;;5014092;28;20001;-73
2023/12/04 10:01:14;;;;;;;;;;;;;;;;;;5014269;28;19925;-72
2023/12/04 10:03:41;;;;;;;;;;;;;;;;;;5014348;28;19936;-74
2023/12/04 10:06:08;;;;;;;;;;;;;;;;;;5014228;28;19975;-72
2023/12/04 10:08:35;;;;;;;;;;;;;;;;;;5014346;28;19925;-73
2023/12/04 10:11:02;;;;;;;;;;;;;;;;;;5014595;28;19925;-72
2023/12/04 10:13:29;;;;;;;;;;;;;;;;;;5013885;28;20324;-72
2023/12/04 10:15:56;;;;;;;;;;;;;;;;;;5014218;28;19929;-72
2023/12/04 10:18:23;;;;;;;;;;;;;;;;;;5013965;28;20290;-72
2023/12/04 10:20:50;;;;;;;;;;;;;;;;;;5014247;28;19932;-73
2023/12/04 10:23:17;;;;;;;;;;;;;;;;;;5013882;28;19933;-72
2023/12/04 10:25:43;;;;;;;;;;;;;;;;;;5014117;28;19925;-72
2023/12/04 10:28:10;;;;;;;;;;;;;;;;;;5014131;28;19925;-72
2023/12/04 10:30:37;;;;;;;;;;;;;;;;;;5015739;28;19925;-72
2023/12/04 10:33:04;;;;;;;;;;;;;;;;;;5014705;28;20318;-72
2023/12/04 10:35:31;;;;;;;;;;;;;;;;;;5014061;28;19929;-72
2023/12/04 10:37:59;;;;;;;;;;;;;;;;;;5013766;28;20382;-72
2023/12/04 10:40:26;;;;;;;;;;;;;;;;;;5013727;28;19956;-72
2023/12/04 10:42:53;;;;;;;;;;;;;;;;;;5016006;28;19925;-72
2023/12/04 10:45:22;;;;;;;;;;;;;;;;;;5018415;28;19926;-73
2023/12/04 10:47:49;;;;;;;;;;;;;;;;;;5017889;28;19981;-72
2023/12/04 10:50:16;;;;;;;;;;;;;;;;;;5017588;28;19933;-72
2023/12/04 10:52:43;;;;;;;;;;;;;;;;;;5017553;28;19931;-73
2023/12/04 10:55:09;;;;;;;;;;;;;;;;;;5017837;28;20390;-72
2023/12/04 10:57:36;;;;;;;;;;;;;;;;;;5017434;28;19926;-72
2023/12/04 11:00:03;;;;;;;;;;;;;;;;;;5017534;28;19956;-72
2023/12/04 11:02:30;;;;;;;;;;;;;;;;;;5017469;28;19976;-73
2023/12/04 11:04:57;;;;;;;;;;;;;;;;;;5017448;28;19926;-71
2023/12/04 11:07:24;;;;;;;;;;;;;;;;;;5017075;28;19933;-72
2023/12/04 11:09:51;;;;;;;;;;;;;;;;;;5017849;28;19925;-72
2023/12/04 11:12:18;;;;;;;;;;;;;;;;;;5016914;28;20379;-72
2023/12/04 11:14:45;;;;;;;;;;;;;;;;;;5017195;28;19925;-72
2023/12/04 11:17:12;;;;;;;;;;;;;;;;;;5017135;28;19932;-72
2023/12/04 11:19:39;;;;;;;;;;;;;;;;;;5018423;28;19932;-72
2023/12/04 11:22:06;;;;;;;;;;;;;;;;;;5019974;28;20020;-72
2023/12/04 11:24:33;;;;;;;;;;;;;;;;;;5018448;28;20413;-72
2023/12/04 11:27:00;;;;;;;;;;;;;;;;;;5017571;28;19926;-73
2023/12/04 11:29:27;;;;;;;;;;;;;;;;;;5016982;28;19925;-73
2023/12/04 11:31:54;;;;;;;;;;;;;;;;;;5016600;28;19926;-73
2023/12/04 11:34:21;;;;;;;;;;;;;;;;;;5018008;28;19929;-73
2023/12/04 11:36:48;;;;;;;;;;;;;;;;;;5016825;28;19925;-73
2023/12/04 11:39:15;;;;;;;;;;;;;;;;;;5016693;28;19925;-73
2023/12/04 11:41:43;;;;;;;;;;;;;;;;;;5016751;28;19925;-73
2023/12/04 11:44:10;;;;;;;;;;;;;;;;;;5016771;28;19929;-73
2023/12/04 11:46:37;;;;;;;;;;;;;;;;;;5016348;28;20375;-73
2023/12/04 11:49:04;;;;;;;;;;;;;;;;;;5016750;28;19925;-73
2023/12/04 11:51:31;;;;;;;;;;;;;;;;;;5017352;28;19925;-73
2023/12/04 11:53:58;;;;;;;;;;;;;;;;;;5016978;28;19925;-74
2023/12/04 11:56:25;;;;;;;;;;;;;;;;;;5017938;28;20012;-73
2023/12/04 11:58:52;;;;;;;;;;;;;;;;;;5017153;28;19933;-73
2023/12/04 12:01:20;;;;;;;;;;;;;;;;;;5017310;28;19932;-73
2023/12/04 12:03:47;;;;;;;;;;;;;;;;;;5017312;28;19926;-73
2023/12/04 12:06:14;;;;;;;;;;;;;;;;;;5017088;28;20370;-73
2023/12/04 12:08:41;;;;;;;;;;;;;;;;;;5017016;28;19925;-73
2023/12/04 12:11:08;;;;;;;;;;;;;;;;;;5017469;28;19976;-73
2023/12/04 12:13:35;;;;;;;;;;;;;;;;;;5017144;28;19932;-73
2023/12/04 12:16:03;;;;;;;;;;;;;;;;;;5017177;28;19926;-73
2023/12/04 12:18:30;;;;;;;;;;;;;;;;;;5016428;28;20298;-73
2023/12/04 12:20:57;;;;;;;;;;;;;;;;;;5017087;28;20371;-73
2023/12/04 12:23:24;;;;;;;;;;;;;;;;;;5017326;28;19980;-73
2023/12/04 12:25:51;;;;;;;;;;;;;;;;;;5016770;28;19926;-73
2023/12/04 12:28:18;;;;;;;;;;;;;;;;;;5016975;28;20374;-72
2023/12/04 12:30:46;;;;;;;;;;;;;;;;;;5017033;28;19925;-72
2023/12/04 12:33:13;;;;;;;;;;;;;;;;;;5017067;28;19992;-72
2023/12/04 12:35:41;;;;;;;;;;;;;;;;;;5017143;28;19926;-72
2023/12/04 12:38:08;;;;;;;;;;;;;;;;;;5016486;28;19948;-72
2023/12/04 12:40:35;;;;;;;;;;;;;;;;;;5016635;28;19925;-72
2023/12/04 12:43:02;;;;;;;;;;;;;;;;;;5016822;28;20294;-72
2023/12/04 12:45:29;;;;;;;;;;;;;;;;;;5016904;28;19960;-72
2023/12/04 12:47:56;;;;;;;;;;;;;;;;;;5016255;28;19965;-71
2023/12/04 12:50:23;;;;;;;;;;;;;;;;;;5016755;28;19980;-72
2023/12/04 12:52:50;;;;;;;;;;;;;;;;;;5016636;28;20347;-72
2023/12/04 12:55:17;;;;;;;;;;;;;;;;;;5016188;28;19929;-72
2023/12/04 12:57:44;;;;;;;;;;;;;;;;;;5016016;28;19925;-72
2023/12/04 13:00:11;;;;;;;;;;;;;;;;;;5016286;28;19937;-72
2023/12/04 13:02:38;;;;;;;;;;;;;;;;;;5016359;28;19925;-72
2023/12/04 13:05:05;;;;;;;;;;;;;;;;;;5015225;28;20387;-72
2023/12/04 13:07:32;;;;;;;;;;;;;;;;;;5016459;28;20293;-72
2023/12/04 13:09:59;;;;;;;;;;;;;;;;;;5017668;28;19926;-72
2023/12/04 13:12:26;;;;;;;;;;;;;;;;;;5015131;28;19930;-73
2023/12/04 13:14:53;;;;;;;;;;;;;;;;;;5015043;28;20383;-73
2023/12/04 13:17:20;;;;;;;;;;;;;;;;;;5014836;28;19933;-73
2023/12/04 13:19:47;;;;;;;;;;;;;;;;;;5015268;28;20003;-73
2023/12/04 13:22:14;;;;;;;;;;;;;;;;;;5015120;28;19925;-72
2023/12/04 13:24:41;;;;;;;;;;;;;;;;;;5015134;28;20433;-72
2023/12/04 13:27:09;;;;;;;;;;;;;;;;;;5015052;28;19979;-72
2023/12/04 13:29:36;;;;;;;;;;;;;;;;;;5015055;28;19925;-72
2023/12/04 13:32:02;;;;;;;;;;;;;;;;;;5014956;28;19948;-73
2023/12/04 13:34:29;;;;;;;;;;;;;;;;;;5015254;28;19925;-73
2023/12/04 13:36:57;;;;;;;;;;;;;;;;;;5014877;28;20303;-73
2023/12/04 13:39:36;;;;;;;;;;;;;;;;;;5014640;28;19925;-73
2023/12/04 13:44:51;;;;;;;;;;;;;;;;;;4997259;28;19929;-73
2023/12/04 13:47:18;;;;;;;;;;;;;;;;;;5014659;28;19988;-73
2023/12/04 13:49:46;;;;;;;;;;;;;;;;;;5015488;28;19948;-73
2023/12/04 13:52:13;;;;;;;;;;;;;;;;;;5014292;28;20270;-73
2023/12/04 13:54:46;;;;;;;;;;;;;;;;;;5015395;28;19926;-73
2023/12/04 13:57:18;;;;;;;;;;;;;;;;;;5014636;28;19932;-72
2023/12/04 13:59:45;;;;;;;;;;;;;;;;;;5014585;28;19925;-72
2023/12/04 14:02:13;;;;;;;;;;;;;;;;;;5014838;28;19926;-73
2023/12/04 14:04:39;;;;;;;;;;;;;;;;;;5014577;28;19932;-73
2023/12/04 14:07:08;;;;;;;;;;;;;;;;;;5014790;28;19932;-72
2023/12/04 14:09:36;;;;;;;;;;;;;;;;;;5015650;28;20015;-73
2023/12/04 14:12:03;;;;;;;;;;;;;;;;;;5014441;28;19995;-73
2023/12/04 14:14:30;;;;;;;;;;;;;;;;;;5015396;28;19926;-73
2023/12/04 14:16:57;;;;;;;;;;;;;;;;;;5016974;28;19932;-73
2023/12/04 14:19:24;;;;;;;;;;;;;;;;;;5018473;28;20371;-73
2023/12/04 14:21:50;;;;;;;;;;;;;;;;;;5018883;28;19936;-73
2023/12/04 14:24:18;;;;;;;;;;;;;;;;;;5019126;28;20067;-73
2023/12/04 14:26:45;;;;;;;;;;;;;;;;;;5018563;28;20003;-73
2023/12/04 14:29:13;;;;;;;;;;;;;;;;;;5019299;28;19929;-73
2023/12/04 14:31:40;;;;;;;;;;;;;;;;;;5018507;28;19940;-73
2023/12/04 14:34:07;;;;;;;;;;;;;;;;;;5017883;28;19973;-72
2023/12/04 14:36:34;;;;;;;;;;;;;;;;;;5017835;28;20382;-71
2023/12/04 14:39:01;;;;;;;;;;;;;;;;;;5018059;28;20402;-71
2023/12/04 14:41:28;;;;;;;;;;;;;;;;;;5018082;28;19932;-71
2023/12/04 14:43:55;;;;;;;;;;;;;;;;;;5018058;28;19929;-71
2023/12/04 14:46:22;;;;;;;;;;;;;;;;;;5017984;28;19933;-71
2023/12/04 14:48:49;;;;;;;;;;;;;;;;;;5017930;28;19932;-71
2023/12/04 14:51:16;;;;;;;;;;;;;;;;;;5017979;28;19964;-72
2023/12/04 14:53:50;;;;;;;;;;;;;;;;;;5017887;28;20379;-70
2023/12/04 15:05:32;;;;;;;;;;;;;;;;;;5018304;28;20026;-72
2023/12/04 15:08:03;;;;;;;;;;;;;;;;;;5018240;28;20030;-72
2023/12/04 15:13:38;;;;;;;;;;;;;;;;;;5009251;28;19961;-72
2023/12/04 15:21:30;;;;;;;;;;;;;;;;;;5017954;28;19921;-74
2023/12/04 15:23:56;;;;;;;;;;;;;;;;;;5017435;28;19926;-69
2023/12/04 15:26:23;;;;;;;;;;;;;;;;;;5017227;28;20297;-70
2023/12/04 15:28:50;;;;;;;;;;;;;;;;;;5016201;28;19925;-69
2023/12/04 15:31:16;;;;;;;;;;;;;;;;;;5017212;28;19926;-72
2023/12/04 15:33:43;;;;;;;;;;;;;;;;;;5017126;28;19921;-72
2023/12/04 15:36:10;;;;;;;;;;;;;;;;;;5017648;28;20303;-73
2023/12/04 15:38:36;;;;;;;;;;;;;;;;;;5017085;28;19932;-73
2023/12/04 15:41:04;;;;;;;;;;;;;;;;;;5016979;28;19922;-73
2023/12/04 15:43:30;;;;;;;;;;;;;;;;;;5017255;28;19925;-72
2023/12/04 15:45:57;;;;;;;;;;;;;;;;;;5016799;28;19921;-73
2023/12/04 15:48:23;;;;;;;;;;;;;;;;;;5016513;28;19925;-73
2023/12/04 15:50:50;;;;;;;;;;;;;;;;;;5016937;28;19921;-73
2023/12/04 15:53:16;;;;;;;;;;;;;;;;;;5016497;28;20295;-73
2023/12/04 15:55:42;;;;;;;;;;;;;;;;;;5016954;28;19932;-73
2023/12/04 15:58:08;;;;;;;;;;;;;;;;;;5016731;28;19925;-74
2023/12/04 16:00:37;;;;;;;;;;;;;;;;;;5016824;28;19928;-73
2023/12/04 16:03:03;;;;;;;;;;;;;;;;;;5016742;28;19926;-73
2023/12/04 16:05:29;;;;;;;;;;;;;;;;;;5016666;28;19928;-73
2023/12/04 16:07:57;;;;;;;;;;;;;;;;;;5016371;28;19937;-73
2023/12/04 16:10:24;;;;;;;;;;;;;;;;;;5016788;28;19925;-72
2023/12/04 16:12:51;;;;;;;;;;;;;;;;;;5016326;28;19937;-70
2023/12/04 16:15:19;;;;;;;;;;;;;;;;;;5016355;28;19925;-70
2023/12/04 16:17:46;;;;;;;;;;;;;;;;;;5016113;28;20270;-70
2023/12/04 16:20:13;;;;;;;;;;;;;;;;;;5016559;28;19929;-69
2023/12/04 16:22:42;;;;;;;;;;;;;;;;;;5016291;28;19925;-69
2023/12/04 16:25:09;;;;;;;;;;;;;;;;;;5016567;28;19976;-69
2023/12/04 16:27:38;;;;;;;;;;;;;;;;;;5016157;28;19925;-69
2023/12/04 16:30:05;;;;;;;;;;;;;;;;;;5016151;28;20371;-69
2023/12/04 16:32:32;;;;;;;;;;;;;;;;;;5016197;28;19925;-69
2023/12/04 16:34:58;;;;;;;;;;;;;;;;;;5015401;28;19933;-70
2023/12/04 16:37:25;;;;;;;;;;;;;;;;;;5015771;28;19933;-70
2023/12/04 16:39:52;;;;;;;;;;;;;;;;;;5015491;28;20383;-70
2023/12/04 16:42:19;;;;;;;;;;;;;;;;;;5016017;28;19925;-71
2023/12/04 16:44:46;;;;;;;;;;;;;;;;;;5015472;28;19932;-71
2023/12/04 16:47:13;;;;;;;;;;;;;;;;;;5015834;28;19981;-70
2023/12/04 16:49:40;;;;;;;;;;;;;;;;;;5015755;28;20310;-70
2023/12/04 16:52:08;;;;;;;;;;;;;;;;;;5015758;28;19925;-71
2023/12/04 16:54:35;;;;;;;;;;;;;;;;;;5016585;28;20032;-71
2023/12/04 16:57:04;;;;;;;;;;;;;;;;;;5016087;28;19976;-72
2023/12/04 16:59:31;;;;;;;;;;;;;;;;;;5015393;28;20288;-72
2023/12/04 17:01:58;;;;;;;;;;;;;;;;;;5015792;28;19932;-71
2023/12/04 17:04:25;;;;;;;;;;;;;;;;;;5015675;28;19933;-71
2023/12/04 17:06:51;;;;;;;;;;;;;;;;;;5016544;28;19929;-71
2023/12/04 17:09:18;;;;;;;;;;;;;;;;;;5015376;28;20423;-70
2023/12/04 17:11:45;;;;;;;;;;;;;;;;;;5016247;28;19925;-71
2023/12/04 17:14:12;;;;;;;;;;;;;;;;;;5016357;28;19925;-70
2023/12/04 17:16:39;;;;;;;;;;;;;;;;;;5016166;28;19932;-70
2023/12/04 17:19:06;;;;;;;;;;;;;;;;;;5015180;28;19932;-70
2023/12/04 17:21:33;;;;;;;;;;;;;;;;;;5015287;28;19959;-69
2023/12/04 17:24:00;;;;;;;;;;;;;;;;;;5015820;28;19926;-70
2023/12/04 17:26:27;;;;;;;;;;;;;;;;;;5015506;28;20001;-70
2023/12/04 17:28:54;;;;;;;;;;;;;;;;;;5015262;28;20306;-69
2023/12/04 17:31:20;;;;;;;;;;;;;;;;;;5016557;28;19925;-70
2023/12/04 17:33:47;;;;;;;;;;;;;;;;;;5015678;28;19932;-71
2023/12/04 17:36:14;;;;;;;;;;;;;;;;;;5015515;28;20405;-70
2023/12/04 17:38:42;;;;;;;;;;;;;;;;;;5015525;28;19933;-71
2023/12/04 17:41:09;;;;;;;;;;;;;;;;;;5015588;28;19929;-70
2023/12/04 17:43:38;;;;;;;;;;;;;;;;;;5014879;28;21470;-70
2023/12/04 17:46:05;;;;;;;;;;;;;;;;;;5015702;28;19932;-72
2023/12/04 17:48:32;;;;;;;;;;;;;;;;;;5015476;28;19925;-70
2023/12/04 17:50:59;;;;;;;;;;;;;;;;;;5015415;28;19925;-71
2023/12/04 17:53:26;;;;;;;;;;;;;;;;;;5015528;28;20286;-72
2023/12/04 17:55:53;;;;;;;;;;;;;;;;;;5015765;28;19929;-72
2023/12/04 17:58:20;;;;;;;;;;;;;;;;;;5016338;28;19925;-71
2023/12/04 18:00:46;;;;;;;;;;;;;;;;;;5015803;28;20413;-70
2023/12/04 18:03:13;;;;;;;;;;;;;;;;;;5015315;28;19937;-69
2023/12/04 18:05:40;;;;;;;;;;;;;;;;;;5015366;28;20287;-69
2023/12/04 18:08:08;;;;;;;;;;;;;;;;;;5015233;28;19926;-69
2023/12/04 18:10:35;;;;;;;;;;;;;;;;;;5015532;28;19925;-71
2023/12/04 18:13:02;;;;;;;;;;;;;;;;;;5015713;28;20379;-69
2023/12/04 18:15:29;;;;;;;;;;;;;;;;;;5015503;28;19926;-69
2023/12/04 18:17:55;;;;;;;;;;;;;;;;;;5015322;28;20272;-70
2023/12/04 18:20:22;;;;;;;;;;;;;;;;;;5015965;28;19933;-70
2023/12/04 18:22:49;;;;;;;;;;;;;;;;;;5014678;28;20287;-67
2023/12/04 18:25:16;;;;;;;;;;;;;;;;;;5014720;28;19925;-68
2023/12/04 18:27:43;;;;;;;;;;;;;;;;;;5014588;28;20375;-69
2023/12/04 18:30:10;;;;;;;;;;;;;;;;;;5015477;28;19925;-70
2023/12/04 18:32:37;;;;;;;;;;;;;;;;;;5015072;28;19979;-70
2023/12/04 18:35:04;;;;;;;;;;;;;;;;;;5015552;28;19930;-69
2023/12/04 18:37:31;;;;;;;;;;;;;;;;;;5015336;28;19925;-69
2023/12/04 18:39:58;;;;;;;;;;;;;;;;;;5015554;28;19925;-69
2023/12/04 18:42:25;;;;;;;;;;;;;;;;;;5014751;28;19925;-69
2023/12/04 18:44:52;;;;;;;;;;;;;;;;;;5015153;28;19925;-70
2023/12/04 18:47:19;;;;;;;;;;;;;;;;;;5014765;28;20399;-69
2023/12/04 18:49:46;;;;;;;;;;;;;;;;;;5015173;28;19972;-69
2023/12/04 18:52:13;;;;;;;;;;;;;;;;;;5023560;28;19926;-69
2023/12/04 18:54:40;;;;;;;;;;;;;;;;;;5025092;28;20008;-71
2023/12/04 18:57:07;;;;;;;;;;;;;;;;;;5024625;28;19926;-71
2023/12/04 18:59:35;;;;;;;;;;;;;;;;;;5024937;28;19926;-71
2023/12/04 19:02:02;;;;;;;;;;;;;;;;;;5023823;28;19933;-71
2023/12/04 19:04:29;;;;;;;;;;;;;;;;;;5027013;28;19925;-71
2023/12/04 19:06:56;;;;;;;;;;;;;;;;;;5029002;28;19929;-71
2023/12/04 19:09:23;;;;;;;;;;;;;;;;;;5026504;28;19925;-70
2023/12/04 19:11:50;;;;;;;;;;;;;;;;;;5023408;28;19925;-69
2023/12/04 19:14:17;;;;;;;;;;;;;;;;;;5025830;28;19932;-70
2023/12/04 19:16:44;;;;;;;;;;;;;;;;;;5026068;28;19932;-71
2023/12/04 19:19:11;;;;;;;;;;;;;;;;;;5027038;28;19932;-70
2023/12/04 19:21:38;;;;;;;;;;;;;;;;;;5025468;28;19926;-69
2023/12/04 19:24:05;;;;;;;;;;;;;;;;;;5026296;28;19936;-71
2023/12/04 19:26:32;;;;;;;;;;;;;;;;;;5023973;28;20398;-70
2023/12/04 19:28:59;;;;;;;;;;;;;;;;;;5023895;28;20318;-71
2023/12/04 19:31:26;;;;;;;;;;;;;;;;;;5023445;28;19956;-70
2023/12/04 19:33:53;;;;;;;;;;;;;;;;;;5023515;28;19989;-71
2023/12/04 19:36:21;;;;;;;;;;;;;;;;;;5023061;28;19932;-71
2023/12/04 19:38:48;;;;;;;;;;;;;;;;;;5023938;28;19933;-70
2023/12/04 19:41:16;;;;;;;;;;;;;;;;;;5025406;28;19982;-70
2023/12/04 19:43:43;;;;;;;;;;;;;;;;;;5025054;28;19932;-70
2023/12/04 19:46:10;;;;;;;;;;;;;;;;;;5025295;28;19925;-72
2023/12/04 19:48:37;;;;;;;;;;;;;;;;;;5023250;28;19932;-71
2023/12/04 19:51:04;;;;;;;;;;;;;;;;;;5024344;28;19926;-72
2023/12/04 19:53:31;;;;;;;;;;;;;;;;;;5024999;28;19945;-70
2023/12/04 19:55:58;;;;;;;;;;;;;;;;;;5024389;28;19932;-69
2023/12/04 19:58:24;;;;;;;;;;;;;;;;;;5024645;28;19925;-70
2023/12/04 20:00:51;;;;;;;;;;;;;;;;;;5026554;28;19926;-71
2023/12/04 20:03:18;;;;;;;;;;;;;;;;;;5024543;28;19925;-71
2023/12/04 20:05:45;;;;;;;;;;;;;;;;;;5024631;28;20012;-70
2023/12/04 20:08:14;;;;;;;;;;;;;;;;;;5027997;28;19933;-70
2023/12/04 20:10:41;;;;;;;;;;;;;;;;;;5026984;28;20348;-70
2023/12/04 20:13:08;;;;;;;;;;;;;;;;;;5029128;28;19925;-71
2023/12/04 20:15:36;;;;;;;;;;;;;;;;;;5027480;28;20387;-71
2023/12/04 20:18:03;;;;;;;;;;;;;;;;;;5028794;28;19968;-70
2023/12/04 20:20:30;;;;;;;;;;;;;;;;;;5028030;28;20294;-70
2023/12/04 20:22:57;;;;;;;;;;;;;;;;;;5028517;28;19929;-69
2023/12/04 20:25:25;;;;;;;;;;;;;;;;;;5028310;28;19926;-70
2023/12/04 20:27:52;;;;;;;;;;;;;;;;;;5026718;28;19992;-69
2023/12/04 20:30:19;;;;;;;;;;;;;;;;;;5027577;28;19932;-70
2023/12/04 20:32:47;;;;;;;;;;;;;;;;;;5026795;28;19929;-70
2023/12/04 20:35:14;;;;;;;;;;;;;;;;;;5026096;28;19925;-70
2023/12/04 20:37:41;;;;;;;;;;;;;;;;;;5024005;28;19925;-70
2023/12/04 20:40:08;;;;;;;;;;;;;;;;;;5024846;28;19968;-70
2023/12/04 20:42:36;;;;;;;;;;;;;;;;;;5023006;28;19926;-71
2023/12/04 20:45:03;;;;;;;;;;;;;;;;;;5020774;28;20020;-70
2023/12/04 20:47:30;;;;;;;;;;;;;;;;;;5025096;28;20387;-70
2023/12/04 20:49:57;;;;;;;;;;;;;;;;;;5023346;28;19936;-70
2023/12/04 20:52:24;;;;;;;;;;;;;;;;;;5023435;28;19926;-70
2023/12/04 20:54:51;;;;;;;;;;;;;;;;;;5023590;28;19932;-71
2023/12/04 20:57:18;;;;;;;;;;;;;;;;;;5022716;28;20012;-70
2023/12/04 20:59:45;;;;;;;;;;;;;;;;;;5015993;28;19949;-70
2023/12/04 21:02:11;;;;;;;;;;;;;;;;;;5016203;28;19925;-69
2023/12/04 21:04:39;;;;;;;;;;;;;;;;;;5015720;28;19932;-70
2023/12/04 21:07:06;;;;;;;;;;;;;;;;;;5015996;28;19969;-69
2023/12/04 21:09:35;;;;;;;;;;;;;;;;;;5015036;28;20025;-69
2023/12/04 21:12:02;;;;;;;;;;;;;;;;;;5015432;28;19929;-69
2023/12/04 21:14:29;;;;;;;;;;;;;;;;;;5015655;28;19925;-69
2023/12/04 21:16:56;;;;;;;;;;;;;;;;;;5015426;28;19925;-69
2023/12/04 21:19:22;;;;;;;;;;;;;;;;;;5015425;28;20393;-70
2023/12/04 21:21:49;;;;;;;;;;;;;;;;;;5015684;28;19925;-70
2023/12/04 21:24:18;;;;;;;;;;;;;;;;;;5015224;28;20306;-70
2023/12/04 21:26:45;;;;;;;;;;;;;;;;;;5014814;28;19925;-70
2023/12/04 21:29:12;;;;;;;;;;;;;;;;;;5014667;28;20382;-70
2023/12/04 21:31:39;;;;;;;;;;;;;;;;;;5015331;28;20016;-70
2023/12/04 21:34:06;;;;;;;;;;;;;;;;;;5014966;28;20299;-70
2023/12/04 21:36:33;;;;;;;;;;;;;;;;;;5014890;28;19930;-70
2023/12/04 21:39:00;;;;;;;;;;;;;;;;;;5014818;28;19933;-70
2023/12/04 21:41:27;;;;;;;;;;;;;;;;;;5014706;28;20379;-70
2023/12/04 21:43:54;;;;;;;;;;;;;;;;;;5015007;28;20429;-70
2023/12/04 21:46:21;;;;;;;;;;;;;;;;;;5014979;28;19925;-70
2023/12/04 21:48:48;;;;;;;;;;;;;;;;;;5014780;28;19926;-70
2023/12/04 21:51:15;;;;;;;;;;;;;;;;;;5014782;28;19941;-70
2023/12/04 21:53:42;;;;;;;;;;;;;;;;;;5014770;28;20283;-70
2023/12/04 21:56:10;;;;;;;;;;;;;;;;;;5014611;28;20073;-70
2023/12/04 21:58:37;;;;;;;;;;;;;;;;;;5015064;28;19930;-72
2023/12/04 22:01:04;;;;;;;;;;;;;;;;;;5015136;28;19925;-72
2023/12/04 22:03:33;;;;;;;;;;;;;;;;;;5015739;28;19929;-72
2023/12/04 22:06:00;;;;;;;;;;;;;;;;;;5015515;28;19926;-72
2023/12/04 22:08:27;;;;;;;;;;;;;;;;;;5014812;28;19929;-72
2023/12/04 22:10:54;;;;;;;;;;;;;;;;;;5014300;28;20384;-71
2023/12/04 22:13:21;;;;;;;;;;;;;;;;;;5014859;28;19933;-71
2023/12/04 22:15:48;;;;;;;;;;;;;;;;;;5014968;28;19925;-71
2023/12/04 22:18:15;;;;;;;;;;;;;;;;;;5014720;28;19925;-72
2023/12/04 22:20:42;;;;;;;;;;;;;;;;;;5014672;28;20390;-73